Chillicothe, MO

11:52 AM CDT on July 30, 2014 (GMT -0500)
Lamoni Municipal (KLWD) Elev 1132 ft | 40.63 °N, 93.90 °W | Change Station

Current weather conditions updated 59 minutes ago

Clear
Clear
74 °F
Feels Like 74 °F
N
5
Wind Variable Wind from North

Today is forecast to be Warmer than yesterday.

Today
High -- | Low -- °F
--% Chance of Precip.
Yesterday
High -- | Low -- °F
Precip. -- in
6:11 AM 8:29 PM
Waxing Crescent, 12% visible
Pressure 30.12 in
Visibility 10.0 miles
Clouds Clear
Dew Point 57 °F
Humidity 55%
Rainfall 0.00 in
Snow Depth Not available.
UV 8 out of 12
Pollen 6.00 out of 12
Air Quality Not available.
Flu Activity Not available.
METAR KLWD 301553Z AUTO 01004KT 10SM CLR 23/14 A3014 RMK AO2 SLP200 T02330139

More Conditions Fewer Conditions

Pressure 30.12 in
Visibility 10.0 miles
Clouds Clear
Dew Point 57 °F
Humidity 55%
Rainfall 0.00 in
Snow Depth Not available.
UV 8 out of 12
Pollen 6.00 out of 12
Air Quality Not available.
Flu Activity Not available.
METAR KLWD 301553Z AUTO 01004KT 10SM CLR 23/14 A3014 RMK AO2 SLP200 T02330139

More Conditions Fewer Conditions

10-Day Weather Forecast

Almanac

Astronomy

Jul. 30, 2014 Rise Set
Actual Time 6:11 AM CDT 8:29 PM CDT
Civil Twilight 5:40 AM CDT 8:59 PM CDT
Nautical Twilight 5:03 AM CDT 9:37 PM CDT
Astronomical Twilight 4:22 AM CDT 10:18 PM CDT
Moon 9:43 AM CDT 10:12 PM CDT
Length of Visible Light 15h 18m
Length of Day
14h 18m
Tomorrow will be 1m 55s shorter.
Waxing Crescent, 12% of the Moon is Illuminated
Today
Waxing Crescent
Aug 3
First Quarter
Aug 10
Full
Aug 17
Last Quarter
Aug 25
New

Today's Extremes

State Highs State Lows

Community

WunderPhotos

Upload Photos

1,739,133 photos uploaded!

WunderBlogs® & News

Nearby

Snow Depth

Station Depth Elevation
No new snow has been reported.

Earthquake Activity

City Distance Mag. Time & Date
No recent earthquake activity has been reported nearby.
Minimum magnitude displayed is 2.5.

Coastal Water Temperatures

Place Temperature
No Stations Reporting

Nearby Weather Stations

Station Location Temp. Heat Index Dew Point Humidity Wind Precip. Elev Updated Type
Northwest Chillicothe, Chillicothe, MO 77.0 °F 79 °F 60 °F 55% East  at  0.9 mph 0.00 in / hr 843 ft 11:52 AM CDT Rapid Fire
MesoWest COBURN , Jamesport, MO 59 °F - - - North  at  - 0.00 in / hr 901 ft 8:00 AM CDT MADIS
trenton mo, Trenton, MO 74.3 °F 77 °F 59 °F 59% North  at  4.0 mph 0.00 in / hr 850 ft 11:52 AM CDT Rapid Fire
MesoWest NETTLE , Hamilton, MO 82 °F 80 °F - - North  at  - 0.00 in / hr 772 ft 10:15 AM CDT MADIS

Show More Stations Show Fewer Stations